createdAt,value
2022-12-19T00:00:07.650Z,101846.78
2022-12-19T00:02:39.097Z,101839.97
2022-12-19T00:05:06.456Z,101836.56
2022-12-19T00:07:33.305Z,101833.19
2022-12-19T00:09:59.955Z,101837.56
2022-12-19T00:12:26.487Z,101828.19
2022-12-19T00:14:53.065Z,101828.31
2022-12-19T00:17:19.648Z,101825.69
2022-12-19T00:19:46.400Z,101826.56
2022-12-19T00:22:12.993Z,101831.69
2022-12-19T00:24:39.874Z,101835.16
2022-12-19T00:27:06.615Z,101844.53
2022-12-19T00:29:33.319Z,101833.47
2022-12-19T00:31:59.932Z,101838.66
2022-12-19T00:34:26.629Z,101823.34
2022-12-19T00:36:53.137Z,101819.09
2022-12-19T00:39:19.774Z,101801.22
2022-12-19T00:41:46.294Z,101798.69
2022-12-19T00:44:14.495Z,101792.72
2022-12-19T00:46:41.894Z,101792.78
2022-12-19T00:49:09.974Z,101789.41
2022-12-19T00:51:37.727Z,101785.16
2022-12-19T00:54:07.371Z,101775.81
2022-12-19T00:56:37.375Z,101787.78
2022-12-19T00:59:05.156Z,101781.81
2022-12-19T01:01:34.842Z,101775.91
2022-12-19T01:04:27.669Z,101796.34
2022-12-19T01:06:52.002Z,101799.78
2022-12-19T01:09:19.167Z,101799.78
2022-12-19T01:12:04.213Z,101794.78
2022-12-19T01:14:30.767Z,101782.03
2022-12-19T01:16:57.353Z,101767.56
2022-12-19T01:19:24.206Z,101770.13
2022-12-19T01:21:50.760Z,101752.25
2022-12-19T01:24:18.895Z,101748.91
2022-12-19T01:26:46.097Z,101748.06
2022-12-19T01:29:12.620Z,101754.03
2022-12-19T01:31:39.198Z,101746.47
2022-12-19T01:34:08.238Z,101757.56
2022-12-19T01:36:39.595Z,101767.78
2022-12-19T01:39:06.539Z,101761.81
2022-12-19T01:41:33.228Z,101751.69
2022-12-19T01:44:08.735Z,101727.00
2022-12-19T01:46:54.166Z,101726.16
2022-12-19T01:49:32.165Z,101722.75
2022-12-19T01:52:06.434Z,101710.91
2022-12-19T01:54:40.547Z,101706.69
2022-12-19T01:57:13.973Z,101704.19
2022-12-19T01:59:54.390Z,101685.47
2022-12-19T02:02:28.334Z,101686.34
2022-12-19T02:04:54.978Z,101663.41
2022-12-19T02:07:24.181Z,101664.28
2022-12-19T02:09:56.720Z,101655.78
2022-12-19T02:12:25.802Z,101665.22
2022-12-19T02:14:54.103Z,101658.41
2022-12-19T02:17:35.625Z,101639.66
2022-12-19T02:20:39.872Z,101647.41
2022-12-19T02:23:33.379Z,101627.88
2022-12-19T02:26:32.401Z,101625.34
2022-12-19T02:29:16.663Z,101628.75
2022-12-19T02:31:49.063Z,101618.59
2022-12-19T02:34:21.729Z,101613.53
2022-12-19T02:37:28.120Z,101614.41
2022-12-19T02:40:11.884Z,101603.38
2022-12-19T02:42:43.991Z,101593.22
2022-12-19T02:45:15.623Z,101593.22
2022-12-19T02:47:52.022Z,101591.53
2022-12-19T02:50:19.018Z,101598.34
2022-12-19T02:52:47.310Z,101596.69
2022-12-19T02:55:21.581Z,101598.41
2022-12-19T02:57:50.964Z,101595.00
2022-12-19T03:00:20.662Z,101602.69
2022-12-19T03:03:07.454Z,101607.81
2022-12-19T03:05:34.064Z,101607.00
2022-12-19T03:08:26.491Z,101617.25
2022-12-19T03:10:59.048Z,101614.69
2022-12-19T03:13:47.397Z,101624.97
2022-12-19T03:16:14.811Z,101612.19
2022-12-19T03:18:42.383Z,101607.94
2022-12-19T03:21:20.551Z,101609.63
2022-12-19T03:23:50.119Z,101601.06
2022-12-19T03:26:20.011Z,101596.84
2022-12-19T03:29:03.798Z,101590.88
2022-12-19T03:31:33.325Z,101584.91
2022-12-19T03:34:08.745Z,101584.91
2022-12-19T03:36:41.674Z,101575.50
2022-12-19T03:39:11.397Z,101577.28
2022-12-19T03:41:58.177Z,101579.84
2022-12-19T03:44:28.672Z,101587.50
2022-12-19T03:47:03.571Z,101573.03
2022-12-19T03:49:30.463Z,101571.31
2022-12-19T03:52:10.843Z,101562.78
2022-12-19T03:54:42.349Z,101562.84
2022-12-19T03:57:34.186Z,101552.56
2022-12-19T04:00:06.375Z,101570.53
2022-12-19T04:02:38.185Z,101560.28
2022-12-19T04:05:08.910Z,101557.72
2022-12-19T04:07:37.668Z,101562.91
2022-12-19T04:10:11.541Z,101558.63
2022-12-19T04:12:42.902Z,101560.31
2022-12-19T04:15:10.070Z,101554.34
2022-12-19T04:17:57.887Z,101542.38
2022-12-19T04:20:28.942Z,101545.78
2022-12-19T04:23:34.759Z,101558.56
2022-12-19T04:26:04.617Z,101549.19
2022-12-19T04:28:42.046Z,101544.06
2022-12-19T04:31:13.263Z,101553.50
2022-12-19T04:33:39.803Z,101539.00
2022-12-19T04:36:06.865Z,101536.44
2022-12-19T04:38:33.610Z,101542.41
2022-12-19T04:41:00.596Z,101545.03
2022-12-19T04:43:27.209Z,101544.19
2022-12-19T04:45:57.305Z,101555.28
2022-12-19T04:48:24.013Z,101542.47
2022-12-19T04:50:50.554Z,101542.50
2022-12-19T04:53:17.263Z,101546.78
2022-12-19T04:55:44.331Z,101539.09
2022-12-19T04:58:11.491Z,101529.72
2022-12-19T05:00:38.796Z,101544.28
2022-12-19T05:03:05.451Z,101543.41
2022-12-19T05:05:32.067Z,101537.44
2022-12-19T05:07:58.657Z,101529.75
2022-12-19T05:10:25.455Z,101528.09
2022-12-19T05:12:54.452Z,101531.47
2022-12-19T05:15:21.013Z,101522.94
2022-12-19T05:17:47.526Z,101517.84
2022-12-19T05:20:16.379Z,101519.56
2022-12-19T05:22:42.887Z,101516.16
2022-12-19T05:25:09.873Z,101514.44
2022-12-19T05:27:36.428Z,101515.34
2022-12-19T05:30:03.434Z,101511.91
2022-12-19T05:32:32.123Z,101511.88
2022-12-19T05:34:58.773Z,101516.19
2022-12-19T05:37:25.438Z,101520.44
2022-12-19T05:39:51.989Z,101518.81
2022-12-19T05:42:18.618Z,101517.19
2022-12-19T05:44:45.230Z,101517.25
2022-12-19T05:47:11.791Z,101518.13
2022-12-19T05:49:41.374Z,101518.97
2022-12-19T05:52:07.904Z,101526.66
2022-12-19T05:54:34.875Z,101525.84
2022-12-19T05:57:01.626Z,101524.13
2022-12-19T05:59:28.206Z,101540.38
2022-12-19T06:01:55.045Z,101541.25
2022-12-19T06:04:21.797Z,101537.00
2022-12-19T06:06:48.372Z,101536.09
2022-12-19T06:09:14.977Z,101530.97
2022-12-19T06:11:41.808Z,101533.53
2022-12-19T06:14:08.525Z,101523.28
2022-12-19T06:16:35.183Z,101521.53
2022-12-19T06:19:01.907Z,101523.25
2022-12-19T06:21:28.509Z,101526.66
2022-12-19T06:23:55.098Z,101515.56
2022-12-19T06:26:22.754Z,101512.13
2022-12-19T06:28:54.768Z,101514.72
2022-12-19T06:31:23.851Z,101519.84
2022-12-19T06:33:52.019Z,101524.16
2022-12-19T06:36:44.574Z,101514.75
2022-12-19T06:39:14.394Z,101522.44
2022-12-19T06:42:00.239Z,101513.03
2022-12-19T06:44:26.787Z,101519.88
2022-12-19T06:46:54.293Z,101516.47
2022-12-19T06:49:21.153Z,101506.22
2022-12-19T06:51:47.833Z,101511.34
2022-12-19T06:54:14.712Z,101503.69
2022-12-19T06:56:44.145Z,101512.22
2022-12-19T06:59:15.811Z,101514.75
2022-12-19T07:01:42.965Z,101510.50
2022-12-19T07:04:11.969Z,101522.47
2022-12-19T07:06:39.199Z,101519.94
2022-12-19T07:09:06.561Z,101530.19
2022-12-19T07:11:33.128Z,101520.78
2022-12-19T07:13:59.569Z,101524.22
2022-12-19T07:16:27.544Z,101518.22
2022-12-19T07:18:54.306Z,101511.41
2022-12-19T07:21:20.939Z,101522.53
2022-12-19T07:23:47.419Z,101531.94
2022-12-19T07:26:13.914Z,101530.22
2022-12-19T07:28:40.513Z,101530.22
2022-12-19T07:31:06.973Z,101542.19
2022-12-19T07:33:33.779Z,101541.38
2022-12-19T07:36:00.480Z,101537.94
2022-12-19T07:38:26.953Z,101542.25
2022-12-19T07:40:53.472Z,101542.25
2022-12-19T07:43:20.076Z,101541.34
2022-12-19T07:45:46.613Z,101541.34
2022-12-19T07:48:13.248Z,101543.94
2022-12-19T07:50:40.709Z,101534.53
2022-12-19T07:53:07.161Z,101541.34
2022-12-19T07:55:33.679Z,101533.69
2022-12-19T07:58:00.522Z,101541.38
2022-12-19T08:00:27.046Z,101543.94
2022-12-19T08:02:53.721Z,101541.38
2022-12-19T08:05:20.430Z,101547.34
2022-12-19T08:07:46.889Z,101548.22
2022-12-19T08:10:15.002Z,101542.25
2022-12-19T08:12:42.294Z,101549.06
2022-12-19T08:15:09.435Z,101551.66
2022-12-19T08:17:38.727Z,101545.66
2022-12-19T08:20:08.108Z,101539.66
2022-12-19T08:22:34.954Z,101539.66
2022-12-19T08:25:01.425Z,101551.66
2022-12-19T08:27:27.941Z,101546.50
2022-12-19T08:29:54.438Z,101549.94
2022-12-19T08:32:22.022Z,101549.94
2022-12-19T08:34:49.926Z,101562.78
2022-12-19T08:37:16.833Z,101557.63
2022-12-19T08:39:43.403Z,101567.91
2022-12-19T08:42:09.916Z,101571.34
2022-12-19T08:44:36.414Z,101563.66
2022-12-19T08:47:02.923Z,101568.78
2022-12-19T08:49:29.413Z,101576.47
2022-12-19T08:51:56.130Z,101561.06
2022-12-19T08:54:22.683Z,101565.34
2022-12-19T08:56:49.191Z,101545.63
2022-12-19T08:59:21.119Z,101535.38
2022-12-19T09:01:58.732Z,101543.09
2022-12-19T09:06:02.643Z,101557.63
2022-12-19T09:07:15.675Z,101560.19
2022-12-19T09:09:42.693Z,101563.63
2022-12-19T09:12:09.216Z,101560.19
2022-12-19T09:14:36.306Z,101567.03
2022-12-19T09:17:03.956Z,101570.47
2022-12-19T09:19:31.692Z,101565.31
2022-12-19T09:21:58.479Z,101563.59
2022-12-19T09:24:24.960Z,101569.59
2022-12-19T09:26:51.445Z,101559.31
2022-12-19T09:29:20.908Z,101558.47
2022-12-19T09:31:55.794Z,101565.31
2022-12-19T09:34:31.767Z,101558.47
2022-12-19T09:37:07.261Z,101570.44
2022-12-19T09:39:35.578Z,101564.47
2022-12-19T09:42:20.885Z,101552.44
2022-12-19T09:45:04.285Z,101555.84
2022-12-19T09:47:38.081Z,101549.84
2022-12-19T09:50:22.932Z,101558.41
2022-12-19T09:52:58.284Z,101560.13
2022-12-19T09:55:40.609Z,101554.09
2022-12-19T09:58:13.899Z,101557.53
2022-12-19T10:00:44.690Z,101552.38
2022-12-19T10:03:42.391Z,101570.38
2022-12-19T10:07:07.708Z,101573.81
2022-12-19T10:10:01.037Z,101578.94
2022-12-19T10:12:39.411Z,101565.22
2022-12-19T10:15:27.634Z,101580.66
2022-12-19T10:18:15.609Z,101583.19
2022-12-19T10:20:49.753Z,101566.91
2022-12-19T10:23:42.463Z,101554.91
2022-12-19T10:26:29.944Z,101559.19
2022-12-19T10:29:14.723Z,101551.47
2022-12-19T10:32:11.437Z,101543.75
2022-12-19T10:34:42.239Z,101544.56
2022-12-19T10:37:40.930Z,101547.13
2022-12-19T10:40:20.011Z,101553.97
2022-12-19T10:43:02.640Z,101543.66
2022-12-19T10:45:46.875Z,101547.06
2022-12-19T10:48:20.898Z,101544.47
2022-12-19T10:50:52.270Z,101538.50
2022-12-19T10:53:28.420Z,101529.88
2022-12-19T10:56:00.701Z,101530.72
2022-12-19T10:58:28.357Z,101541.03
2022-12-19T11:01:10.141Z,101526.41
2022-12-19T11:03:38.803Z,101524.72
2022-12-19T11:06:06.607Z,101525.56
2022-12-19T11:08:37.672Z,101521.28
2022-12-19T11:14:29.789Z,101515.25
2022-12-19T11:18:22.777Z,101517.88
2022-12-19T11:22:18.800Z,101524.69
2022-12-19T11:29:25.267Z,101507.53
2022-12-19T11:29:37.952Z,101517.84
2022-12-19T11:29:44.095Z,101516.97
2022-12-19T11:29:45.795Z,101517.84
2022-12-19T11:34:06.365Z,101522.97
2022-12-19T11:36:49.622Z,101520.38
2022-12-19T11:39:23.607Z,101514.34
2022-12-19T11:42:20.086Z,101520.38
2022-12-19T11:44:50.673Z,101516.06
2022-12-19T11:47:26.285Z,101521.22
2022-12-19T11:50:00.167Z,101517.72
2022-12-19T11:53:04.463Z,101513.44
2022-12-19T11:55:54.507Z,101511.75
2022-12-19T11:58:24.190Z,101511.69
2022-12-19T12:01:44.355Z,101522.81
2022-12-19T12:04:44.433Z,101517.63
2022-12-19T12:08:22.534Z,101504.75
2022-12-19T12:15:10.232Z,101502.97
2022-12-19T12:24:15.937Z,101510.69
2022-12-19T12:26:03.331Z,101506.41
2022-12-19T12:31:16.376Z,101499.50
2022-12-19T12:31:16.639Z,101500.34
2022-12-19T12:31:52.576Z,101483.94
2022-12-19T12:32:02.054Z,101491.69
2022-12-19T12:35:46.388Z,101473.56
2022-12-19T12:40:39.437Z,101463.25
2022-12-19T12:43:44.015Z,101470.06
2022-12-19T12:46:20.302Z,101453.72
2022-12-19T12:48:51.750Z,101463.16
2022-12-19T12:51:18.741Z,101451.06
2022-12-19T12:53:46.753Z,101465.56
2022-12-19T12:56:16.474Z,101461.28
2022-12-19T12:58:48.853Z,101455.19
2022-12-19T13:01:26.001Z,101454.31
2022-12-19T13:03:59.419Z,101456.84
2022-12-19T13:06:46.193Z,101470.56
2022-12-19T13:09:28.118Z,101464.47
2022-12-19T13:12:22.788Z,101449.88
2022-12-19T13:14:50.920Z,101448.16
2022-12-19T13:17:32.907Z,101450.75
2022-12-19T13:20:27.653Z,101437.84
2022-12-19T13:23:00.434Z,101435.28
2022-12-19T13:25:26.910Z,101429.25
2022-12-19T13:28:01.444Z,101434.41
2022-12-19T13:30:46.700Z,101421.50
2022-12-19T13:33:22.136Z,101421.47
2022-12-19T13:39:37.595Z,101421.44
2022-12-19T13:40:01.589Z,101419.69
2022-12-19T13:42:00.005Z,101425.66
2022-12-19T13:44:26.720Z,101417.91
2022-12-19T13:46:55.984Z,101418.75
2022-12-19T13:49:34.878Z,101425.72
2022-12-19T13:52:02.945Z,101424.84
2022-12-19T13:54:45.567Z,101420.56
2022-12-19T13:57:23.040Z,101415.50
2022-12-19T13:59:59.960Z,101418.13
2022-12-19T14:02:33.095Z,101419.00
2022-12-19T14:05:33.781Z,101402.69
2022-12-19T14:08:16.842Z,101398.44
2022-12-19T14:11:35.050Z,101399.31
2022-12-19T14:14:08.168Z,101386.41
2022-12-19T14:16:44.753Z,101381.22
2022-12-19T14:19:24.080Z,101382.09
2022-12-19T14:22:09.748Z,101383.78
2022-12-19T14:24:37.649Z,101386.38
2022-12-19T14:28:24.645Z,101382.09
2022-12-19T14:30:27.323Z,101388.16
2022-12-19T14:33:44.122Z,101383.78
2022-12-19T14:36:07.557Z,101380.34
2022-12-19T14:39:24.815Z,101385.56
2022-12-19T14:41:46.733Z,101371.00
2022-12-19T14:51:51.824Z,101382.19
2022-12-19T14:53:52.728Z,101382.16
2022-12-19T14:54:17.514Z,101380.44
2022-12-19T14:54:21.709Z,101369.28
2022-12-19T14:56:02.118Z,101362.25
2022-12-19T14:58:53.700Z,101365.69
2022-12-19T15:01:25.922Z,101351.16
2022-12-19T15:04:52.057Z,101343.41
2022-12-19T15:07:08.677Z,101333.09
2022-12-19T15:11:08.582Z,101331.34
2022-12-19T15:14:50.942Z,101321.88
2022-12-19T15:15:48.364Z,101333.00
2022-12-19T15:18:23.899Z,101337.31
2022-12-19T15:20:52.114Z,101333.84
2022-12-19T15:23:22.268Z,101328.66
2022-12-19T15:26:07.344Z,101330.34
2022-12-19T15:28:49.903Z,101335.41
2022-12-19T15:31:32.262Z,101337.19
2022-12-19T15:34:32.840Z,101345.69
2022-12-19T15:36:45.913Z,101338.81
2022-12-19T15:39:12.455Z,101340.56
2022-12-19T15:41:38.993Z,101327.72
2022-12-19T15:44:36.890Z,101330.31
2022-12-19T15:47:06.431Z,101329.38
2022-12-19T15:49:35.081Z,101332.84
2022-12-19T15:52:03.080Z,101333.78
2022-12-19T15:57:26.233Z,101332.00
2022-12-19T15:59:53.165Z,101331.97
2022-12-19T16:02:25.403Z,101335.34
2022-12-19T16:04:55.558Z,101340.50
2022-12-19T16:07:26.540Z,101335.41
2022-12-19T16:09:53.146Z,101328.47
2022-12-19T16:12:27.100Z,101343.94
2022-12-19T16:14:57.616Z,101337.88
2022-12-19T16:17:26.250Z,101345.50
2022-12-19T16:19:52.828Z,101354.13
2022-12-19T16:22:22.845Z,101348.91
2022-12-19T16:24:51.441Z,101350.66
2022-12-19T16:27:26.824Z,101354.09
2022-12-19T16:29:54.863Z,101348.94
2022-12-19T16:32:25.691Z,101352.41
2022-12-19T16:34:53.228Z,101356.72
2022-12-19T16:37:19.785Z,101349.88
2022-12-19T16:39:46.255Z,101347.31
2022-12-19T16:42:15.924Z,101344.75
2022-12-19T16:44:43.824Z,101347.31
2022-12-19T16:47:15.158Z,101346.44
2022-12-19T16:49:41.875Z,101354.16
2022-12-19T16:52:08.629Z,101360.09
2022-12-19T16:54:35.110Z,101366.13
2022-12-19T16:57:06.649Z,101362.56
2022-12-19T16:59:36.000Z,101388.38
2022-12-19T17:02:03.272Z,101381.41
2022-12-19T17:04:30.164Z,101384.88
2022-12-19T17:06:56.752Z,101394.34
2022-12-19T17:09:24.790Z,101387.47
2022-12-19T17:12:01.053Z,101385.78
2022-12-19T17:14:31.882Z,101392.66
2022-12-19T17:16:59.331Z,101395.25
2022-12-19T17:19:26.012Z,101391.78
2022-12-19T17:21:52.981Z,101397.75
2022-12-19T17:24:20.019Z,101407.13
2022-12-19T17:26:47.162Z,101414.97
2022-12-19T17:29:14.101Z,101413.19
2022-12-19T17:31:41.519Z,101401.19
2022-12-19T17:34:40.662Z,101398.59
2022-12-19T17:37:14.771Z,101397.78
2022-12-19T17:39:42.307Z,101398.63
2022-12-19T17:42:22.973Z,101398.66
2022-12-19T17:44:49.501Z,101392.66
2022-12-19T17:47:19.727Z,101386.59
2022-12-19T17:49:48.140Z,101386.59
2022-12-19T17:52:17.572Z,101398.63
2022-12-19T17:54:44.653Z,101398.63
2022-12-19T17:57:16.000Z,101407.25
2022-12-19T17:59:42.546Z,101405.53
2022-12-19T18:02:20.761Z,101414.16
2022-12-19T18:04:47.675Z,101412.41
2022-12-19T18:07:18.001Z,101426.16
2022-12-19T18:09:45.019Z,101414.97
2022-12-19T18:12:11.630Z,101419.25
2022-12-19T18:14:38.242Z,101410.66
2022-12-19T18:17:05.366Z,101420.91
2022-12-19T18:19:34.161Z,101403.66
2022-12-19T18:22:00.668Z,101398.53
2022-12-19T18:24:29.714Z,101409.59
2022-12-19T18:26:56.222Z,101404.34
2022-12-19T18:29:22.891Z,101402.75
2022-12-19T18:31:51.236Z,101394.13
2022-12-19T18:34:20.845Z,101392.34
2022-12-19T18:36:48.253Z,101387.16
2022-12-19T18:39:24.099Z,101398.34
2022-12-19T18:41:51.210Z,101399.19
2022-12-19T18:44:17.927Z,101398.31
2022-12-19T18:46:45.449Z,101389.69
2022-12-19T18:49:14.191Z,101389.53
2022-12-19T18:51:40.770Z,101385.81
2022-12-19T18:54:19.628Z,101401.09
2022-12-19T18:56:46.201Z,101396.03
2022-12-19T18:59:12.721Z,101403.84
2022-12-19T19:01:42.650Z,101399.63
2022-12-19T19:04:12.218Z,101394.53
2022-12-19T19:06:40.304Z,101410.09
2022-12-19T19:09:16.024Z,101404.94
2022-12-19T19:11:42.581Z,101406.63
2022-12-19T19:14:09.716Z,101407.47
2022-12-19T19:16:39.926Z,101396.28
2022-12-19T19:19:10.039Z,101382.53
2022-12-19T19:21:37.273Z,101387.72
2022-12-19T19:24:16.627Z,101391.97
2022-12-19T19:26:43.197Z,101408.34
2022-12-19T19:29:09.860Z,101397.97
2022-12-19T19:31:40.831Z,101400.50
2022-12-19T19:34:15.585Z,101404.69
2022-12-19T19:36:46.345Z,101401.22
2022-12-19T19:39:14.084Z,101399.50
2022-12-19T19:41:40.623Z,101402.13
2022-12-19T19:44:07.472Z,101409.72
2022-12-19T19:46:33.996Z,101401.97
2022-12-19T19:49:00.480Z,101410.53
2022-12-19T19:51:29.046Z,101410.44
2022-12-19T19:53:55.905Z,101419.84
2022-12-19T19:56:22.486Z,101415.53
2022-12-19T19:58:49.019Z,101412.84
2022-12-19T20:01:15.673Z,101411.94
2022-12-19T20:03:44.838Z,101426.53
2022-12-19T20:06:12.176Z,101416.22
2022-12-19T20:08:40.264Z,101408.41
2022-12-19T20:11:08.366Z,101409.34
2022-12-19T20:13:35.346Z,101409.31
2022-12-19T20:16:08.447Z,101414.50
2022-12-19T20:18:35.974Z,101400.72
2022-12-19T20:21:04.725Z,101402.41
2022-12-19T20:23:34.390Z,101404.91
2022-12-19T20:26:05.072Z,101401.44
2022-12-19T20:28:31.801Z,101395.41
2022-12-19T20:30:58.609Z,101386.69
2022-12-19T20:33:25.510Z,101388.41
2022-12-19T20:35:56.896Z,101396.97
2022-12-19T20:38:23.800Z,101397.81
2022-12-19T20:40:55.884Z,101395.19
2022-12-19T20:43:23.893Z,101393.38
2022-12-19T20:45:51.032Z,101396.78
2022-12-19T20:48:18.580Z,101396.78
2022-12-19T20:50:45.049Z,101389.94
2022-12-19T20:53:11.593Z,101394.22
2022-12-19T20:55:38.093Z,101396.78
2022-12-19T20:58:04.634Z,101397.63
2022-12-19T21:00:31.079Z,101388.06
2022-12-19T21:03:27.196Z,101394.94
2022-12-19T21:05:44.832Z,101394.09
2022-12-19T21:08:11.365Z,101394.97
2022-12-19T21:10:38.029Z,101394.81
2022-12-19T21:13:04.549Z,101393.97
2022-12-19T21:15:31.455Z,101399.94
2022-12-19T21:17:58.007Z,101400.81
2022-12-19T21:20:33.913Z,101406.78
2022-12-19T21:23:01.211Z,101397.28
2022-12-19T21:25:27.885Z,101382.66
2022-12-19T21:27:54.393Z,101381.81
2022-12-19T21:30:21.060Z,101376.53
2022-12-19T21:32:47.603Z,101379.06
2022-12-19T21:35:14.115Z,101383.28
2022-12-19T21:37:43.715Z,101374.69
2022-12-19T21:40:10.922Z,101376.28
2022-12-19T21:42:37.397Z,101382.28
2022-12-19T21:45:04.168Z,101391.78
2022-12-19T21:47:30.656Z,101383.16
2022-12-19T21:49:57.115Z,101394.31
2022-12-19T21:52:23.606Z,101384.81
2022-12-19T21:54:50.263Z,101380.50
2022-12-19T21:57:16.759Z,101377.09
2022-12-19T21:59:43.331Z,101378.81
2022-12-19T22:02:10.749Z,101371.66
2022-12-19T22:04:37.291Z,101375.13
2022-12-19T22:07:05.128Z,101380.25
2022-12-19T22:09:32.010Z,101371.72
2022-12-19T22:11:58.482Z,101379.41
2022-12-19T22:14:25.515Z,101371.59
2022-12-19T22:16:52.260Z,101366.44
2022-12-19T22:19:19.555Z,101362.06
2022-12-19T22:21:47.240Z,101368.88
2022-12-19T22:24:16.369Z,101369.75
2022-12-19T22:26:43.274Z,101380.81
2022-12-19T22:29:14.671Z,101381.69
2022-12-19T22:31:41.458Z,101377.28
2022-12-19T22:34:13.233Z,101375.50
2022-12-19T22:36:41.419Z,101366.84
2022-12-19T22:39:19.664Z,101368.53
2022-12-19T22:41:46.919Z,101370.16
2022-12-19T22:44:20.288Z,101372.72
2022-12-19T22:46:47.136Z,101366.72
2022-12-19T22:49:14.304Z,101359.81
2022-12-19T22:51:41.454Z,101367.53
2022-12-19T22:54:08.314Z,101371.00
2022-12-19T22:56:36.935Z,101374.41
2022-12-19T22:59:06.460Z,101380.50
2022-12-19T23:01:37.224Z,101365.88
2022-12-19T23:04:05.392Z,101368.41
2022-12-19T23:06:34.418Z,101366.63
2022-12-19T23:09:01.683Z,101356.25
2022-12-19T23:11:32.346Z,101345.88
2022-12-19T23:14:00.547Z,101346.75
2022-12-19T23:16:27.165Z,101340.66
2022-12-19T23:18:53.779Z,101336.34
2022-12-19T23:21:22.847Z,101326.81
2022-12-19T23:23:52.159Z,101323.25
2022-12-19T23:26:28.092Z,101317.09
2022-12-19T23:29:00.623Z,101317.09
2022-12-19T23:31:28.395Z,101309.28
2022-12-19T23:33:55.829Z,101305.91
2022-12-19T23:36:44.998Z,101303.34
2022-12-19T23:39:11.198Z,101306.75
2022-12-19T23:41:38.381Z,101298.91
2022-12-19T23:44:05.272Z,101309.28
2022-12-19T23:46:32.021Z,101312.72
2022-12-19T23:48:58.572Z,101319.53
2022-12-19T23:51:27.211Z,101320.34
2022-12-19T23:53:55.493Z,101326.22
2022-12-19T23:56:24.554Z,101320.06
2022-12-19T23:58:51.650Z,101325.22
